Time;durP1;ratioP1;P1;durP2;ratioP2;P2;SDS_P1;SDS_P2;PMS_P1;PMS_P2;Temp;Humidity;BMP_temperature;BMP_pressure;BME280_temperature;BME280_humidity;BME280_pressure;Samples;Min_cycle;Max_cycle;Signal;HPM_P1;HPM_P2
2022/10/09 14:59:19;;;;;;;;;19.75;18.75;;;;;;;;5094524;27;13730;-75
2022/10/09 15:01:44;;;;;;;;;14.75;14.75;;;;;;;;5106923;27;11171;-75
2022/10/09 15:04:09;;;;;;;;;11.75;11.00;;;;;;;;5126206;27;10097;-74
2022/10/09 15:08:00;;;;;;;;;;;;;;;;;;5094098;27;13647;-79
2022/10/09 15:10:25;;;;;;;;;12.00;11.00;;;;;;;;5106452;28;8877;-78
2022/10/09 15:12:50;;;;;;;;;14.25;11.00;;;;;;;;5107398;28;8798;-78
2022/10/09 15:15:16;;;;;;;;;15.50;14.50;;;;;;;;5105018;28;8825;-76
2022/10/09 15:17:41;;;;;;;;;9.75;8.50;;;;;;;;5107426;28;8687;-73
2022/10/09 15:20:06;;;;;;;;;14.50;12.00;;;;;;;;5107525;28;8788;-73
2022/10/09 15:22:32;;;;;;;;;12.75;11.00;;;;;;;;5107223;28;8796;-73
2022/10/09 15:24:57;;;;;;;;;21.00;19.75;;;;;;;;5106494;28;8461;-74
2022/10/09 15:27:22;;;;;;;;;26.00;21.50;;;;;;;;5106486;27;9541;-73
2022/10/09 15:29:47;;;;;;;;;22.00;22.00;;;;;;;;5107009;28;9549;-73
2022/10/09 15:32:13;;;;;;;;;26.25;24.25;;;;;;;;5107191;28;8796;-76
2022/10/09 15:34:38;;;;;;;;;21.00;21.00;;;;;;;;5107053;28;9502;-77
2022/10/09 15:37:03;;;;;;;;;22.75;22.00;;;;;;;;5105771;28;8834;-77
2022/10/09 15:39:31;;;;;;;;;27.25;24.75;;;;;;;;5107294;28;9509;-76
2022/10/09 15:41:56;;;;;;;;;25.00;22.00;;;;;;;;5106741;28;8808;-75
2022/10/09 15:44:22;;;;;;;;;20.25;20.25;;;;;;;;5106938;28;10203;-74
2022/10/09 15:46:48;;;;;;;;;17.50;13.00;;;;;;;;5104748;28;8973;-76
2022/10/09 15:49:13;;;;;;;;;11.50;11.25;;;;;;;;5107011;28;9629;-75
2022/10/09 15:51:39;;;;;;;;;9.67;9.67;;;;;;;;5107004;28;11504;-76
2022/10/09 15:54:04;;;;;;;;;15.50;13.50;;;;;;;;5106908;28;8845;-73
2022/10/09 15:56:30;;;;;;;;;19.75;19.00;;;;;;;;5105774;28;8940;-78
2022/10/09 15:58:55;;;;;;;;;17.25;17.25;;;;;;;;5106771;28;8788;-73
2022/10/09 16:01:21;;;;;;;;;19.25;18.25;;;;;;;;5106893;28;8812;-77
2022/10/09 16:03:47;;;;;;;;;18.25;17.50;;;;;;;;5106858;28;8804;-79
2022/10/09 16:06:14;;;;;;;;;13.50;13.50;;;;;;;;5106805;28;8832;-77
2022/10/09 16:08:40;;;;;;;;;20.50;18.75;;;;;;;;5105142;28;8823;-77
2022/10/09 16:11:08;;;;;;;;;24.00;24.00;;;;;;;;5106768;28;9947;-75
2022/10/09 16:13:34;;;;;;;;;18.00;17.25;;;;;;;;5106576;28;10308;-75
2022/10/09 16:16:03;;;;;;;;;27.50;25.50;;;;;;;;5106484;28;9955;-73
2022/10/09 16:18:28;;;;;;;;;30.50;28.75;;;;;;;;5097780;28;10280;-73
2022/10/09 16:20:53;;;;;;;;;35.00;29.75;;;;;;;;5092885;28;10751;-73
2022/10/09 16:23:19;;;;;;;;;28.50;24.50;;;;;;;;5092548;28;8792;-73
2022/10/09 16:25:54;;;;;;;;;20.25;19.75;;;;;;;;5092676;28;8780;-74
2022/10/09 16:28:20;;;;;;;;;25.50;22.75;;;;;;;;5092513;28;9581;-77
2022/10/09 16:30:45;;;;;;;;;26.25;23.50;;;;;;;;5092798;28;10423;-74
2022/10/09 16:33:10;;;;;;;;;28.00;22.50;;;;;;;;5105250;28;8814;-69
2022/10/09 16:35:35;;;;;;;;;28.50;27.25;;;;;;;;5097277;28;8808;-70
2022/10/09 16:38:01;;;;;;;;;26.50;26.00;;;;;;;;5091783;28;8800;-72
2022/10/09 16:40:26;;;;;;;;;37.25;34.25;;;;;;;;5090984;28;8804;-71
2022/10/09 16:42:52;;;;;;;;;35.25;29.75;;;;;;;;5091651;28;8800;-71
2022/10/09 16:45:17;;;;;;;;;24.00;21.25;;;;;;;;5091305;28;8808;-75
2022/10/09 16:47:44;;;;;;;;;19.75;19.50;;;;;;;;5089726;28;8816;-74
2022/10/09 16:50:10;;;;;;;;;17.75;16.25;;;;;;;;5091860;28;8791;-73
2022/10/09 16:52:35;;;;;;;;;19.00;16.00;;;;;;;;5091271;28;10324;-75
2022/10/09 16:55:00;;;;;;;;;18.75;18.00;;;;;;;;5091747;28;8788;-72
2022/10/09 16:57:26;;;;;;;;;18.25;18.00;;;;;;;;5090436;28;8950;-74
2022/10/09 16:59:51;;;;;;;;;21.75;17.75;;;;;;;;5091784;28;8772;-74
2022/10/09 17:02:17;;;;;;;;;18.00;18.00;;;;;;;;5091566;28;8847;-75
2022/10/09 17:04:42;;;;;;;;;22.00;18.25;;;;;;;;5092014;28;8880;-72
2022/10/09 17:07:08;;;;;;;;;20.75;19.25;;;;;;;;5089935;28;8883;-78
2022/10/09 17:09:36;;;;;;;;;23.00;18.00;;;;;;;;5090561;28;8804;-74
2022/10/09 17:12:02;;;;;;;;;20.25;18.75;;;;;;;;5091017;28;10430;-75
2022/10/09 17:14:27;;;;;;;;;18.00;18.00;;;;;;;;5090030;28;10357;-75
2022/10/09 17:16:53;;;;;;;;;21.50;19.00;;;;;;;;5090147;28;10301;-75
2022/10/09 17:19:18;;;;;;;;;20.00;18.00;;;;;;;;5091432;28;8833;-78
2022/10/09 17:21:43;;;;;;;;;18.50;18.50;;;;;;;;5090675;28;8784;-78
2022/10/09 17:24:11;;;;;;;;;18.75;17.75;;;;;;;;5091330;28;8819;-74
2022/10/09 17:26:37;;;;;;;;;22.75;19.00;;;;;;;;5090069;28;8840;-74
2022/10/09 17:29:02;;;;;;;;;17.25;15.50;;;;;;;;5090831;28;10189;-74
2022/10/09 17:31:28;;;;;;;;;18.25;18.25;;;;;;;;5090931;28;9512;-76
2022/10/09 17:33:55;;;;;;;;;18.50;17.00;;;;;;;;5091019;28;9632;-79
2022/10/09 17:36:21;;;;;;;;;22.00;18.25;;;;;;;;5091176;28;8899;-79
2022/10/09 17:38:47;;;;;;;;;19.25;18.00;;;;;;;;5108639;28;10341;-74
2022/10/09 17:41:13;;;;;;;;;19.50;16.75;;;;;;;;5111359;28;10201;-79
2022/10/09 17:43:39;;;;;;;;;20.25;18.75;;;;;;;;5092058;28;8791;-79
2022/10/09 17:46:04;;;;;;;;;22.50;20.00;;;;;;;;5089865;28;8852;-80
2022/10/09 17:48:32;;;;;;;;;21.25;20.25;;;;;;;;5088337;28;9560;-73
2022/10/09 17:50:58;;;;;;;;;20.75;19.25;;;;;;;;5090525;28;8912;-73
2022/10/09 17:53:24;;;;;;;;;18.25;17.00;;;;;;;;5090726;28;9965;-71
2022/10/09 17:55:50;;;;;;;;;19.50;19.50;;;;;;;;5090863;28;8807;-71
2022/10/09 17:58:16;;;;;;;;;29.00;25.25;;;;;;;;5089611;28;8904;-72
2022/10/09 18:00:41;;;;;;;;;26.25;19.75;;;;;;;;5090704;28;10759;-74
2022/10/09 18:03:07;;;;;;;;;18.50;18.00;;;;;;;;5090275;28;8812;-75
2022/10/09 18:05:32;;;;;;;;;19.25;18.25;;;;;;;;5090620;28;8811;-72
2022/10/09 18:07:58;;;;;;;;;21.50;19.00;;;;;;;;5089117;28;8922;-70
2022/10/09 18:10:23;;;;;;;;;17.00;17.00;;;;;;;;5090584;28;8792;-69
2022/10/09 18:12:48;;;;;;;;;13.50;13.50;;;;;;;;5090138;28;8807;-69
2022/10/09 18:15:14;;;;;;;;;30.50;27.75;;;;;;;;5090575;28;8788;-69
2022/10/09 18:17:39;;;;;;;;;28.50;25.25;;;;;;;;5089290;28;8929;-69
2022/10/09 18:20:05;;;;;;;;;35.00;29.50;;;;;;;;5090231;28;8820;-70
2022/10/09 18:22:30;;;;;;;;;37.00;33.75;;;;;;;;5089819;28;8915;-71
2022/10/09 18:24:55;;;;;;;;;28.75;26.00;;;;;;;;5090273;28;8804;-71
2022/10/09 18:27:22;;;;;;;;;38.00;34.00;;;;;;;;5088634;28;9566;-78
2022/10/09 18:29:48;;;;;;;;;40.50;35.50;;;;;;;;5088832;28;8976;-76
2022/10/09 18:32:13;;;;;;;;;33.50;31.75;;;;;;;;5088407;28;11143;-85
2022/10/09 18:34:38;;;;;;;;;18.75;18.50;;;;;;;;5088248;28;8834;-78
2022/10/09 18:37:03;;;;;;;;;21.25;19.25;;;;;;;;5089273;28;8918;-83
2022/10/09 18:39:29;;;;;;;;;26.75;25.25;;;;;;;;5088545;28;8815;-82
2022/10/09 18:41:57;;;;;;;;;27.50;26.50;;;;;;;;5086436;28;8800;-83
2022/10/09 18:44:23;;;;;;;;;31.25;26.50;;;;;;;;5086388;28;8788;-76
2022/10/09 18:46:52;;;;;;;;;50.00;39.75;;;;;;;;5088625;28;10284;-86
2022/10/09 18:49:19;;;;;;;;;37.00;33.25;;;;;;;;5088163;28;11465;-75
2022/10/09 18:51:45;;;;;;;;;67.00;53.00;;;;;;;;5088924;28;11456;-75
2022/10/09 18:54:12;;;;;;;;;25.25;22.50;;;;;;;;5083447;28;12361;-73
2022/10/09 18:56:37;;;;;;;;;51.25;40.50;;;;;;;;5088668;28;8795;-76
2022/10/09 18:59:04;;;;;;;;;58.25;47.50;;;;;;;;5096946;28;11543;-77
2022/10/09 19:01:30;;;;;;;;;33.25;25.25;;;;;;;;5088274;28;8883;-76
2022/10/09 19:03:55;;;;;;;;;31.00;26.50;;;;;;;;5087909;28;10761;-80
2022/10/09 19:06:21;;;;;;;;;33.75;29.25;;;;;;;;5088217;28;8839;-85
2022/10/09 19:08:47;;;;;;;;;29.50;28.25;;;;;;;;5088995;28;8953;-81
2022/10/09 19:11:13;;;;;;;;;39.25;30.25;;;;;;;;5088211;28;10828;-77
2022/10/09 19:13:38;;;;;;;;;31.00;30.25;;;;;;;;5087618;28;8887;-77
2022/10/09 19:16:05;;;;;;;;;35.75;31.50;;;;;;;;5088087;28;8902;-79
2022/10/09 19:18:30;;;;;;;;;32.75;29.00;;;;;;;;5084250;28;8784;-88
2022/10/09 19:20:56;;;;;;;;;40.00;32.50;;;;;;;;5085913;28;12076;-78
2022/10/09 19:23:21;;;;;;;;;31.50;26.75;;;;;;;;5090412;28;8826;-77
2022/10/09 19:25:51;;;;;;;;;37.25;34.00;;;;;;;;5086201;28;8898;-80
2022/10/09 19:28:16;;;;;;;;;38.25;34.00;;;;;;;;5086450;28;9412;-74
2022/10/09 19:30:42;;;;;;;;;36.50;33.75;;;;;;;;5087612;28;11452;-78
2022/10/09 19:33:10;;;;;;;;;35.75;31.75;;;;;;;;5087060;28;8803;-76
2022/10/09 19:35:43;;;;;;;;;37.75;32.00;;;;;;;;5086769;28;9625;-73
2022/10/09 19:38:08;;;;;;;;;28.00;26.00;;;;;;;;5084533;28;11480;-73
2022/10/09 19:40:33;;;;;;;;;36.75;32.25;;;;;;;;5086246;28;10822;-75
2022/10/09 19:42:58;;;;;;;;;30.00;28.75;;;;;;;;5087974;28;8828;-75
2022/10/09 19:45:24;;;;;;;;;37.50;29.50;;;;;;;;5086716;28;8811;-73
2022/10/09 19:47:49;;;;;;;;;34.50;31.25;;;;;;;;5087985;28;8808;-81
2022/10/09 19:50:14;;;;;;;;;31.00;29.25;;;;;;;;5086715;28;8908;-70
2022/10/09 19:52:40;;;;;;;;;36.75;31.00;;;;;;;;5089424;28;8851;-72
2022/10/09 19:55:05;;;;;;;;;33.00;30.00;;;;;;;;5101473;28;8832;-74
2022/10/09 19:57:30;;;;;;;;;24.75;24.75;;;;;;;;5097527;28;8841;-73
2022/10/09 19:59:56;;;;;;;;;28.75;28.75;;;;;;;;5101560;28;8814;-70
2022/10/09 20:02:21;;;;;;;;;30.25;27.50;;;;;;;;5099555;28;8816;-74
2022/10/09 20:04:47;;;;;;;;;34.50;29.75;;;;;;;;5100476;28;8828;-73
2022/10/09 20:07:12;;;;;;;;;38.00;34.75;;;;;;;;5101323;28;8968;-73
2022/10/09 20:09:37;;;;;;;;;29.50;27.50;;;;;;;;5102911;28;11497;-75
2022/10/09 20:12:05;;;;;;;;;33.75;29.00;;;;;;;;5101252;28;9573;-74
2022/10/09 20:14:30;;;;;;;;;27.25;26.00;;;;;;;;5100133;28;8893;-72
2022/10/09 20:16:55;;;;;;;;;31.00;29.00;;;;;;;;5099309;28;11028;-75
2022/10/09 20:19:21;;;;;;;;;34.50;31.25;;;;;;;;5103162;28;8793;-74
2022/10/09 20:21:46;;;;;;;;;34.00;31.75;;;;;;;;5101160;28;8972;-75
2022/10/09 20:24:11;;;;;;;;;31.25;29.00;;;;;;;;5100887;28;9490;-76
2022/10/09 20:26:36;;;;;;;;;30.50;30.50;;;;;;;;5098487;28;8940;-76
2022/10/09 20:29:02;;;;;;;;;35.00;33.00;;;;;;;;5093277;28;8806;-72
2022/10/09 20:31:27;;;;;;;;;32.00;28.75;;;;;;;;5094924;28;8911;-72
2022/10/09 20:33:53;;;;;;;;;36.50;34.25;;;;;;;;5092407;28;8792;-73
2022/10/09 20:36:26;;;;;;;;;34.50;31.25;;;;;;;;5092033;28;8800;-73
2022/10/09 20:38:56;;;;;;;;;33.50;31.00;;;;;;;;5092728;28;8788;-72
2022/10/09 20:41:22;;;;;;;;;38.00;33.00;;;;;;;;5092192;28;11567;-73
2022/10/09 20:43:51;;;;;;;;;34.50;32.25;;;;;;;;5090281;28;11484;-73
2022/10/09 20:46:17;;;;;;;;;33.25;30.00;;;;;;;;5091958;28;11569;-72
2022/10/09 20:48:42;;;;;;;;;36.00;30.25;;;;;;;;5091768;28;11456;-72
2022/10/09 20:51:08;;;;;;;;;27.25;26.25;;;;;;;;5091430;28;8831;-72
2022/10/09 20:53:34;;;;;;;;;34.50;29.25;;;;;;;;5091722;28;8804;-72
2022/10/09 20:56:00;;;;;;;;;33.50;29.00;;;;;;;;5091765;28;8826;-72
2022/10/09 20:58:25;;;;;;;;;29.50;26.50;;;;;;;;5091540;28;8780;-73
2022/10/09 21:00:50;;;;;;;;;30.00;27.75;;;;;;;;5091515;28;11032;-72
2022/10/09 21:03:16;;;;;;;;;27.25;26.75;;;;;;;;5091691;28;8788;-72
2022/10/09 21:05:41;;;;;;;;;27.00;25.75;;;;;;;;5089818;28;8866;-73
2022/10/09 21:08:07;;;;;;;;;25.50;21.25;;;;;;;;5091505;28;8811;-72
2022/10/09 21:10:32;;;;;;;;;22.50;21.50;;;;;;;;5091526;28;8827;-72
2022/10/09 21:12:57;;;;;;;;;26.50;26.50;;;;;;;;5091269;28;8838;-72
2022/10/09 21:15:22;;;;;;;;;27.75;26.00;;;;;;;;5091421;28;8854;-72
2022/10/09 21:17:48;;;;;;;;;30.50;27.25;;;;;;;;5091286;28;8895;-73
2022/10/09 21:20:13;;;;;;;;;35.25;28.50;;;;;;;;5091531;28;8776;-74
2022/10/09 21:22:38;;;;;;;;;26.00;25.50;;;;;;;;5091276;28;8819;-75
2022/10/09 21:25:04;;;;;;;;;33.50;29.00;;;;;;;;5091294;28;8796;-74
2022/10/09 21:27:29;;;;;;;;;27.75;26.25;;;;;;;;5090871;28;8811;-73
2022/10/09 21:29:54;;;;;;;;;31.50;28.25;;;;;;;;5091231;28;8900;-74
2022/10/09 21:32:19;;;;;;;;;28.25;26.25;;;;;;;;5091093;28;8819;-74
2022/10/09 21:34:45;;;;;;;;;33.50;28.50;;;;;;;;5091059;28;8808;-75
2022/10/09 21:37:12;;;;;;;;;31.75;28.75;;;;;;;;5090560;28;8935;-73
2022/10/09 21:39:38;;;;;;;;;26.50;25.00;;;;;;;;5090065;28;8815;-74
2022/10/09 21:42:03;;;;;;;;;36.25;33.00;;;;;;;;5090735;28;11528;-74
2022/10/09 21:44:29;;;;;;;;;31.50;29.25;;;;;;;;5090724;28;8800;-75
2022/10/09 21:46:54;;;;;;;;;31.00;26.25;;;;;;;;5090785;28;8804;-74
2022/10/09 21:49:23;;;;;;;;;28.75;27.50;;;;;;;;5091137;28;8791;-74
2022/10/09 21:51:49;;;;;;;;;29.50;26.75;;;;;;;;5089545;28;8788;-75
2022/10/09 21:54:14;;;;;;;;;26.25;25.75;;;;;;;;5090050;28;11468;-74
2022/10/09 21:56:40;;;;;;;;;30.00;27.25;;;;;;;;5090441;28;8869;-72
2022/10/09 21:59:05;;;;;;;;;28.75;27.75;;;;;;;;5090591;28;9595;-74
2022/10/09 22:01:31;;;;;;;;;31.75;27.75;;;;;;;;5089260;28;8824;-73
2022/10/09 22:03:56;;;;;;;;;22.00;19.50;;;;;;;;5090594;28;8830;-74
2022/10/09 22:06:21;;;;;;;;;29.25;26.00;;;;;;;;5088815;28;8823;-74
2022/10/09 22:08:47;;;;;;;;;29.25;26.25;;;;;;;;5090491;28;8792;-74
2022/10/09 22:11:12;;;;;;;;;26.50;26.00;;;;;;;;5089010;28;8964;-75
2022/10/09 22:13:38;;;;;;;;;31.75;28.00;;;;;;;;5089949;28;9458;-73
2022/10/09 22:16:04;;;;;;;;;29.50;27.00;;;;;;;;5088490;28;8808;-75
2022/10/09 22:18:30;;;;;;;;;34.50;30.75;;;;;;;;5090647;28;8784;-75
2022/10/09 22:20:55;;;;;;;;;32.00;27.00;;;;;;;;5092585;28;12203;-75
2022/10/09 22:23:20;;;;;;;;;32.50;28.75;;;;;;;;5090072;28;8811;-72
2022/10/09 22:26:03;;;;;;;;;28.25;25.75;;;;;;;;5073689;28;9833;-72
2022/10/09 22:28:28;;;;;;;;;28.00;26.50;;;;;;;;5057007;28;10055;-73
2022/10/09 22:31:20;;;;;;;;;32.00;28.00;;;;;;;;5059282;28;11658;-72
2022/10/09 22:33:51;;;;;;;;;30.50;25.50;;;;;;;;5054610;28;8811;-73
2022/10/09 22:36:17;;;;;;;;;30.50;27.00;;;;;;;;5056079;28;11522;-72
2022/10/09 22:38:43;;;;;;;;;30.50;28.50;;;;;;;;5054782;28;11536;-72
2022/10/09 22:41:19;;;;;;;;;26.25;25.25;;;;;;;;5058532;28;12178;-72
2022/10/09 22:43:45;;;;;;;;;30.75;26.00;;;;;;;;5057016;28;8825;-72
2022/10/09 22:46:12;;;;;;;;;26.75;25.75;;;;;;;;5057975;28;11600;-71
2022/10/09 22:48:38;;;;;;;;;26.75;25.50;;;;;;;;5059424;28;11498;-72
2022/10/09 22:51:08;;;;;;;;;18.00;18.00;;;;;;;;5054610;28;11455;-73
2022/10/09 22:53:34;;;;;;;;;26.00;24.00;;;;;;;;5057912;28;8823;-72
2022/10/09 22:55:59;;;;;;;;;20.50;17.00;;;;;;;;5059484;28;11837;-72
2022/10/09 22:58:25;;;;;;;;;23.50;23.00;;;;;;;;5057476;28;11868;-72
2022/10/09 23:00:50;;;;;;;;;26.50;22.50;;;;;;;;5058683;28;8931;-73
2022/10/09 23:03:16;;;;;;;;;31.50;25.50;;;;;;;;5059380;28;8806;-72
2022/10/09 23:05:41;;;;;;;;;25.00;23.00;;;;;;;;5072869;28;8803;-72
2022/10/09 23:08:06;;;;;;;;;26.50;23.75;;;;;;;;5059221;28;8828;-72
2022/10/09 23:10:35;;;;;;;;;27.50;25.25;;;;;;;;5058589;28;8823;-72
2022/10/09 23:13:00;;;;;;;;;26.50;25.00;;;;;;;;5057406;28;8851;-72
2022/10/09 23:15:26;;;;;;;;;28.00;24.00;;;;;;;;5059037;28;11260;-72
2022/10/09 23:17:51;;;;;;;;;24.75;23.50;;;;;;;;5058558;28;8860;-71
2022/10/09 23:20:16;;;;;;;;;26.50;23.25;;;;;;;;5057714;28;8804;-72
2022/10/09 23:22:41;;;;;;;;;24.50;24.00;;;;;;;;5059817;28;9646;-72
2022/10/09 23:25:07;;;;;;;;;29.50;27.50;;;;;;;;5059536;28;8935;-72
2022/10/09 23:27:32;;;;;;;;;26.50;25.00;;;;;;;;5058507;28;8850;-72
2022/10/09 23:29:57;;;;;;;;;29.50;25.50;;;;;;;;5061160;28;8827;-72
2022/10/09 23:32:23;;;;;;;;;25.50;23.75;;;;;;;;5063541;28;8796;-72
2022/10/09 23:34:48;;;;;;;;;28.25;24.50;;;;;;;;5061968;28;8814;-72
2022/10/09 23:37:14;;;;;;;;;27.75;24.25;;;;;;;;5061931;28;8855;-72
